sensor_id;sensor_type;location;lat;lon;timestamp;pressure;altitude;pressure_sealevel;temperature;humidity
19510;BME280;9896;42.486;26.506;2023-03-31T00:01:59;99971.81;;;5.83;52.28
19510;BME280;9896;42.486;26.506;2023-03-31T00:04:26;99957.31;;;5.85;52.54
19510;BME280;9896;42.486;26.506;2023-03-31T00:06:52;99957.81;;;5.89;52.42
19510;BME280;9896;42.486;26.506;2023-03-31T00:09:19;99965.31;;;5.85;52.79
19510;BME280;9896;42.486;26.506;2023-03-31T00:11:49;99970.44;;;5.95;53.31
19510;BME280;9896;42.486;26.506;2023-03-31T00:14:17;99960.66;;;5.87;53.26
19510;BME280;9896;42.486;26.506;2023-03-31T00:16:43;99944.69;;;5.87;54.11
19510;BME280;9896;42.486;26.506;2023-03-31T00:19:10;99954.34;;;5.80;54.96
19510;BME280;9896;42.486;26.506;2023-03-31T00:21:43;99957.78;;;5.97;54.45
19510;BME280;9896;42.486;26.506;2023-03-31T00:24:10;99955.44;;;6.02;54.13
19510;BME280;9896;42.486;26.506;2023-03-31T00:26:37;99950.09;;;6.02;54.21
19510;BME280;9896;42.486;26.506;2023-03-31T00:29:04;99963.16;;;5.89;55.35
19510;BME280;9896;42.486;26.506;2023-03-31T00:31:30;99949.34;;;5.85;57.16
19510;BME280;9896;42.486;26.506;2023-03-31T00:33:56;99966.28;;;5.92;57.82
19510;BME280;9896;42.486;26.506;2023-03-31T00:36:24;99963.31;;;5.79;57.14
19510;BME280;9896;42.486;26.506;2023-03-31T00:38:57;99944.19;;;5.84;56.92
19510;BME280;9896;42.486;26.506;2023-03-31T00:41:36;99947.03;;;5.82;57.40
19510;BME280;9896;42.486;26.506;2023-03-31T00:44:19;99945.72;;;5.86;57.51
19510;BME280;9896;42.486;26.506;2023-03-31T00:49:38;99939.69;;;5.84;57.67
19510;BME280;9896;42.486;26.506;2023-03-31T00:54:34;99948.38;;;5.78;57.80
19510;BME280;9896;42.486;26.506;2023-03-31T00:57:00;99945.94;;;5.69;58.82
19510;BME280;9896;42.486;26.506;2023-03-31T00:59:29;99941.66;;;5.21;66.41
19510;BME280;9896;42.486;26.506;2023-03-31T01:01:57;99933.47;;;5.69;61.77
19510;BME280;9896;42.486;26.506;2023-03-31T01:04:29;99927.50;;;5.59;60.13
19510;BME280;9896;42.486;26.506;2023-03-31T01:07:08;99914.94;;;5.53;60.26
19510;BME280;9896;42.486;26.506;2023-03-31T01:09:37;99891.38;;;5.42;61.14
19510;BME280;9896;42.486;26.506;2023-03-31T01:12:06;99910.59;;;5.52;60.95
19510;BME280;9896;42.486;26.506;2023-03-31T01:14:33;99901.28;;;5.56;61.00
19510;BME280;9896;42.486;26.506;2023-03-31T01:16:58;99909.38;;;5.62;61.19
19510;BME280;9896;42.486;26.506;2023-03-31T01:19:58;99899.72;;;5.70;60.88
19510;BME280;9896;42.486;26.506;2023-03-31T01:30:48;99901.00;;;5.43;63.51
19510;BME280;9896;42.486;26.506;2023-03-31T01:42:04;99887.13;;;5.25;67.15
19510;BME280;9896;42.486;26.506;2023-03-31T01:47:13;99871.69;;;5.20;68.52
19510;BME280;9896;42.486;26.506;2023-03-31T01:52:23;99867.56;;;5.18;69.88
19510;BME280;9896;42.486;26.506;2023-03-31T01:55:07;99868.53;;;5.25;69.93
19510;BME280;9896;42.486;26.506;2023-03-31T01:57:36;99871.00;;;5.26;70.39
19510;BME280;9896;42.486;26.506;2023-03-31T02:00:08;99860.38;;;5.26;71.29
19510;BME280;9896;42.486;26.506;2023-03-31T02:02:49;99845.50;;;5.09;72.14
19510;BME280;9896;42.486;26.506;2023-03-31T02:05:21;99850.78;;;5.17;72.04
19510;BME280;9896;42.486;26.506;2023-03-31T02:08:00;99856.78;;;5.11;73.29
19510;BME280;9896;42.486;26.506;2023-03-31T02:10:30;99859.78;;;5.08;73.45
19510;BME280;9896;42.486;26.506;2023-03-31T02:12:59;99845.53;;;5.01;74.28
19510;BME280;9896;42.486;26.506;2023-03-31T02:15:28;99845.66;;;5.07;74.37
19510;BME280;9896;42.486;26.506;2023-03-31T02:17:57;99824.41;;;5.07;74.51
19510;BME280;9896;42.486;26.506;2023-03-31T02:20:26;99834.84;;;5.17;74.63
19510;BME280;9896;42.486;26.506;2023-03-31T02:22:55;99824.34;;;5.24;74.52
19510;BME280;9896;42.486;26.506;2023-03-31T02:25:28;99826.53;;;5.20;75.26
19510;BME280;9896;42.486;26.506;2023-03-31T02:28:03;99812.75;;;5.17;74.91
19510;BME280;9896;42.486;26.506;2023-03-31T02:30:49;99808.75;;;5.21;75.38
19510;BME280;9896;42.486;26.506;2023-03-31T02:33:18;99812.34;;;5.28;74.59
19510;BME280;9896;42.486;26.506;2023-03-31T02:35:43;99797.47;;;5.10;75.36
19510;BME280;9896;42.486;26.506;2023-03-31T02:38:09;99820.31;;;4.97;76.35
19510;BME280;9896;42.486;26.506;2023-03-31T02:40:36;99828.56;;;5.02;76.89
19510;BME280;9896;42.486;26.506;2023-03-31T02:43:01;99822.50;;;4.85;78.08
19510;BME280;9896;42.486;26.506;2023-03-31T02:45:48;99824.59;;;4.98;77.80
19510;BME280;9896;42.486;26.506;2023-03-31T02:48:31;99827.50;;;4.88;78.61
19510;BME280;9896;42.486;26.506;2023-03-31T03:12:16;99808.34;;;5.01;79.55
19510;BME280;9896;42.486;26.506;2023-03-31T03:17:23;99797.09;;;4.91;79.43
19510;BME280;9896;42.486;26.506;2023-03-31T03:19:54;99792.63;;;4.83;79.60
19510;BME280;9896;42.486;26.506;2023-03-31T03:22:21;99798.97;;;4.74;80.22
19510;BME280;9896;42.486;26.506;2023-03-31T03:24:46;99795.66;;;4.72;80.03
19510;BME280;9896;42.486;26.506;2023-03-31T03:27:12;99805.75;;;4.85;79.91
19510;BME280;9896;42.486;26.506;2023-03-31T03:29:37;99803.28;;;4.75;80.77
19510;BME280;9896;42.486;26.506;2023-03-31T03:32:03;99795.69;;;4.64;81.14
19510;BME280;9896;42.486;26.506;2023-03-31T03:34:28;99800.47;;;4.77;80.57
19510;BME280;9896;42.486;26.506;2023-03-31T03:36:54;99794.66;;;4.73;81.21
19510;BME280;9896;42.486;26.506;2023-03-31T03:39:19;99804.47;;;4.73;81.61
19510;BME280;9896;42.486;26.506;2023-03-31T03:41:45;99802.31;;;4.76;81.68
19510;BME280;9896;42.486;26.506;2023-03-31T03:44:11;99790.84;;;4.76;81.62
19510;BME280;9896;42.486;26.506;2023-03-31T03:46:36;99784.69;;;4.75;81.80
19510;BME280;9896;42.486;26.506;2023-03-31T03:49:02;99799.59;;;4.84;81.94
19510;BME280;9896;42.486;26.506;2023-03-31T03:51:28;99806.75;;;4.84;82.07
19510;BME280;9896;42.486;26.506;2023-03-31T03:53:53;99792.81;;;4.74;82.01
19510;BME280;9896;42.486;26.506;2023-03-31T03:56:19;99806.25;;;4.80;82.05
19510;BME280;9896;42.486;26.506;2023-03-31T03:58:46;99799.97;;;4.73;82.22
19510;BME280;9896;42.486;26.506;2023-03-31T04:01:11;99798.16;;;4.65;82.42
19510;BME280;9896;42.486;26.506;2023-03-31T04:03:37;99790.91;;;4.59;83.07
19510;BME280;9896;42.486;26.506;2023-03-31T04:06:03;99797.03;;;4.60;82.54
19510;BME280;9896;42.486;26.506;2023-03-31T04:08:28;99803.84;;;4.54;83.60
19510;BME280;9896;42.486;26.506;2023-03-31T04:10:53;99794.53;;;4.58;83.02
19510;BME280;9896;42.486;26.506;2023-03-31T04:13:19;99791.38;;;4.63;83.16
19510;BME280;9896;42.486;26.506;2023-03-31T04:15:45;99787.72;;;4.64;82.95
19510;BME280;9896;42.486;26.506;2023-03-31T04:18:11;99780.88;;;4.69;82.99
19510;BME280;9896;42.486;26.506;2023-03-31T04:20:57;99784.38;;;4.70;83.18
19510;BME280;9896;42.486;26.506;2023-03-31T04:23:33;99785.06;;;4.72;83.32
19510;BME280;9896;42.486;26.506;2023-03-31T04:25:59;99790.53;;;4.62;83.61
19510;BME280;9896;42.486;26.506;2023-03-31T04:28:25;99792.69;;;4.67;83.98
19510;BME280;9896;42.486;26.506;2023-03-31T04:30:53;99793.03;;;4.64;83.74
19510;BME280;9896;42.486;26.506;2023-03-31T04:33:19;99795.97;;;4.77;83.93
19510;BME280;9896;42.486;26.506;2023-03-31T04:35:46;99787.03;;;4.70;84.21
19510;BME280;9896;42.486;26.506;2023-03-31T04:38:19;99798.97;;;4.74;84.34
19510;BME280;9896;42.486;26.506;2023-03-31T04:40:50;99799.78;;;4.83;84.91
19510;BME280;9896;42.486;26.506;2023-03-31T04:43:17;99794.03;;;4.63;84.83
19510;BME280;9896;42.486;26.506;2023-03-31T04:45:43;99793.50;;;4.76;85.14
19510;BME280;9896;42.486;26.506;2023-03-31T04:48:09;99782.56;;;5.01;83.39
19510;BME280;9896;42.486;26.506;2023-03-31T04:50:36;99783.59;;;5.00;82.80
19510;BME280;9896;42.486;26.506;2023-03-31T04:53:02;99777.72;;;5.13;82.66
19510;BME280;9896;42.486;26.506;2023-03-31T04:55:28;99788.13;;;5.23;83.19
19510;BME280;9896;42.486;26.506;2023-03-31T04:57:55;99783.84;;;5.13;82.99
19510;BME280;9896;42.486;26.506;2023-03-31T05:00:20;99784.16;;;5.19;83.71
19510;BME280;9896;42.486;26.506;2023-03-31T05:02:46;99779.03;;;5.17;82.21
19510;BME280;9896;42.486;26.506;2023-03-31T05:05:11;99781.88;;;5.38;81.89
19510;BME280;9896;42.486;26.506;2023-03-31T05:07:38;99778.19;;;5.17;82.74
19510;BME280;9896;42.486;26.506;2023-03-31T05:10:04;99773.09;;;5.07;83.49
19510;BME280;9896;42.486;26.506;2023-03-31T05:12:36;99783.81;;;4.91;84.15
19510;BME280;9896;42.486;26.506;2023-03-31T05:15:04;99763.28;;;5.07;84.53
19510;BME280;9896;42.486;26.506;2023-03-31T05:17:34;99760.91;;;5.21;83.05
19510;BME280;9896;42.486;26.506;2023-03-31T05:20:00;99759.34;;;5.03;83.64
19510;BME280;9896;42.486;26.506;2023-03-31T05:22:26;99769.91;;;5.11;84.31
19510;BME280;9896;42.486;26.506;2023-03-31T05:24:51;99763.25;;;5.15;83.85
19510;BME280;9896;42.486;26.506;2023-03-31T05:27:17;99761.41;;;5.16;83.97
19510;BME280;9896;42.486;26.506;2023-03-31T05:29:46;99747.34;;;5.07;82.79
19510;BME280;9896;42.486;26.506;2023-03-31T05:32:11;99749.78;;;5.17;82.35
19510;BME280;9896;42.486;26.506;2023-03-31T05:34:37;99756.16;;;5.31;80.80
19510;BME280;9896;42.486;26.506;2023-03-31T05:37:02;99754.47;;;5.38;80.24
19510;BME280;9896;42.486;26.506;2023-03-31T05:39:28;99746.00;;;5.34;80.17
19510;BME280;9896;42.486;26.506;2023-03-31T05:41:58;99740.56;;;5.50;78.42
19510;BME280;9896;42.486;26.506;2023-03-31T05:44:23;99751.63;;;5.39;79.81
19510;BME280;9896;42.486;26.506;2023-03-31T05:46:48;99744.06;;;5.28;78.33
19510;BME280;9896;42.486;26.506;2023-03-31T05:49:14;99754.53;;;5.30;78.61
19510;BME280;9896;42.486;26.506;2023-03-31T05:51:41;99762.03;;;5.49;79.01
19510;BME280;9896;42.486;26.506;2023-03-31T05:54:06;99740.78;;;5.49;78.82
19510;BME280;9896;42.486;26.506;2023-03-31T05:56:32;99758.56;;;5.48;79.55
19510;BME280;9896;42.486;26.506;2023-03-31T05:59:00;99738.16;;;5.63;79.33
19510;BME280;9896;42.486;26.506;2023-03-31T06:01:26;99722.03;;;5.65;78.17
19510;BME280;9896;42.486;26.506;2023-03-31T06:03:52;99747.63;;;5.89;78.26
19510;BME280;9896;42.486;26.506;2023-03-31T06:06:17;99740.91;;;5.93;78.78
19510;BME280;9896;42.486;26.506;2023-03-31T06:08:44;99738.53;;;5.75;79.26
19510;BME280;9896;42.486;26.506;2023-03-31T06:11:12;99747.50;;;5.82;80.45
19510;BME280;9896;42.486;26.506;2023-03-31T06:13:39;99736.97;;;5.89;79.81
19510;BME280;9896;42.486;26.506;2023-03-31T06:16:05;99727.53;;;6.01;79.78
19510;BME280;9896;42.486;26.506;2023-03-31T06:18:33;99727.38;;;6.17;79.10
19510;BME280;9896;42.486;26.506;2023-03-31T06:20:59;99720.69;;;6.21;79.09
19510;BME280;9896;42.486;26.506;2023-03-31T06:23:25;99709.28;;;6.13;78.63
19510;BME280;9896;42.486;26.506;2023-03-31T06:25:51;99717.91;;;6.44;78.09
19510;BME280;9896;42.486;26.506;2023-03-31T06:28:18;99721.97;;;6.25;79.05
19510;BME280;9896;42.486;26.506;2023-03-31T06:30:44;99724.28;;;6.43;78.15
19510;BME280;9896;42.486;26.506;2023-03-31T06:33:09;99717.47;;;6.55;77.70
19510;BME280;9896;42.486;26.506;2023-03-31T06:35:39;99726.19;;;6.64;77.01
19510;BME280;9896;42.486;26.506;2023-03-31T06:38:05;99718.28;;;6.70;77.09
19510;BME280;9896;42.486;26.506;2023-03-31T06:40:30;99730.94;;;6.83;76.62
19510;BME280;9896;42.486;26.506;2023-03-31T06:42:56;99732.03;;;6.88;76.17
19510;BME280;9896;42.486;26.506;2023-03-31T06:45:21;99723.94;;;6.82;76.06
19510;BME280;9896;42.486;26.506;2023-03-31T06:47:47;99728.00;;;6.78;74.34
19510;BME280;9896;42.486;26.506;2023-03-31T06:50:12;99739.31;;;6.65;75.77
19510;BME280;9896;42.486;26.506;2023-03-31T06:52:38;99727.91;;;6.57;76.35
19510;BME280;9896;42.486;26.506;2023-03-31T06:55:06;99730.66;;;6.78;76.07
19510;BME280;9896;42.486;26.506;2023-03-31T06:57:31;99729.16;;;7.05;71.74
19510;BME280;9896;42.486;26.506;2023-03-31T06:59:58;99728.47;;;7.17;72.10
19510;BME280;9896;42.486;26.506;2023-03-31T07:02:24;99726.25;;;7.21;69.47
19510;BME280;9896;42.486;26.506;2023-03-31T07:04:49;99719.09;;;7.21;68.75
19510;BME280;9896;42.486;26.506;2023-03-31T07:07:15;99719.72;;;7.44;68.97
19510;BME280;9896;42.486;26.506;2023-03-31T07:09:40;99731.03;;;7.46;67.61
19510;BME280;9896;42.486;26.506;2023-03-31T07:12:06;99732.06;;;7.45;67.00
19510;BME280;9896;42.486;26.506;2023-03-31T07:14:31;99718.25;;;7.63;66.92
19510;BME280;9896;42.486;26.506;2023-03-31T07:16:57;99733.09;;;7.30;67.65
19510;BME280;9896;42.486;26.506;2023-03-31T07:19:23;99734.47;;;7.62;66.79
19510;BME280;9896;42.486;26.506;2023-03-31T07:21:49;99733.28;;;7.92;64.95
19510;BME280;9896;42.486;26.506;2023-03-31T07:24:14;99732.44;;;8.19;64.99
19510;BME280;9896;42.486;26.506;2023-03-31T07:26:40;99731.31;;;8.07;66.99
19510;BME280;9896;42.486;26.506;2023-03-31T07:29:05;99723.53;;;8.33;63.71
19510;BME280;9896;42.486;26.506;2023-03-31T07:31:31;99731.56;;;8.33;65.10
19510;BME280;9896;42.486;26.506;2023-03-31T07:33:56;99737.50;;;8.63;65.30
19510;BME280;9896;42.486;26.506;2023-03-31T07:36:22;99722.75;;;8.80;65.21
19510;BME280;9896;42.486;26.506;2023-03-31T07:38:48;99721.13;;;8.79;65.57
19510;BME280;9896;42.486;26.506;2023-03-31T07:41:16;99716.13;;;8.70;67.05
19510;BME280;9896;42.486;26.506;2023-03-31T07:43:42;99716.09;;;8.63;67.69
19510;BME280;9896;42.486;26.506;2023-03-31T07:46:17;99728.59;;;8.56;68.14
19510;BME280;9896;42.486;26.506;2023-03-31T07:48:44;99715.78;;;8.79;67.94
19510;BME280;9896;42.486;26.506;2023-03-31T07:51:11;99712.19;;;8.66;68.62
19510;BME280;9896;42.486;26.506;2023-03-31T07:53:37;99708.09;;;8.63;69.36
19510;BME280;9896;42.486;26.506;2023-03-31T07:56:03;99713.47;;;8.76;70.00
19510;BME280;9896;42.486;26.506;2023-03-31T07:58:28;99713.31;;;8.84;69.63
19510;BME280;9896;42.486;26.506;2023-03-31T08:00:54;99711.28;;;8.93;69.09
19510;BME280;9896;42.486;26.506;2023-03-31T08:03:19;99700.22;;;8.96;70.04
19510;BME280;9896;42.486;26.506;2023-03-31T08:05:45;99698.78;;;9.13;68.78
19510;BME280;9896;42.486;26.506;2023-03-31T08:08:10;99703.53;;;9.18;68.86
19510;BME280;9896;42.486;26.506;2023-03-31T08:10:36;99695.34;;;9.32;68.75
19510;BME280;9896;42.486;26.506;2023-03-31T08:13:01;99688.09;;;9.00;70.75
19510;BME280;9896;42.486;26.506;2023-03-31T08:15:27;99689.97;;;9.13;70.72
19510;BME280;9896;42.486;26.506;2023-03-31T08:17:53;99692.28;;;9.49;69.68
19510;BME280;9896;42.486;26.506;2023-03-31T08:20:18;99687.97;;;9.67;69.18
19510;BME280;9896;42.486;26.506;2023-03-31T08:22:43;99677.47;;;9.59;68.79
19510;BME280;9896;42.486;26.506;2023-03-31T08:25:09;99693.09;;;9.62;68.70
19510;BME280;9896;42.486;26.506;2023-03-31T08:27:36;99680.34;;;9.45;69.29
19510;BME280;9896;42.486;26.506;2023-03-31T08:30:03;99682.81;;;9.59;69.82
19510;BME280;9896;42.486;26.506;2023-03-31T08:32:36;99669.63;;;9.58;69.52
19510;BME280;9896;42.486;26.506;2023-03-31T08:35:02;99665.31;;;9.76;68.64
19510;BME280;9896;42.486;26.506;2023-03-31T08:37:28;99659.34;;;9.88;68.24
19510;BME280;9896;42.486;26.506;2023-03-31T08:39:54;99655.00;;;9.87;69.25
19510;BME280;9896;42.486;26.506;2023-03-31T08:47:25;99658.09;;;9.51;70.08
19510;BME280;9896;42.486;26.506;2023-03-31T08:50:06;99657.28;;;9.57;70.73
19510;BME280;9896;42.486;26.506;2023-03-31T08:52:39;99651.94;;;9.63;70.13
19510;BME280;9896;42.486;26.506;2023-03-31T08:55:11;99645.75;;;9.50;71.91
19510;BME280;9896;42.486;26.506;2023-03-31T09:00:22;99644.53;;;9.65;70.26
19510;BME280;9896;42.486;26.506;2023-03-31T09:11:17;99620.44;;;9.52;71.20
19510;BME280;9896;42.486;26.506;2023-03-31T09:14:28;99602.31;;;9.61;71.23
19510;BME280;9896;42.486;26.506;2023-03-31T09:19:35;99599.25;;;9.44;71.88
19510;BME280;9896;42.486;26.506;2023-03-31T09:22:04;99597.59;;;9.56;70.76
19510;BME280;9896;42.486;26.506;2023-03-31T09:24:43;99606.41;;;9.76;69.97
19510;BME280;9896;42.486;26.506;2023-03-31T09:27:12;99603.94;;;9.82;69.47
19510;BME280;9896;42.486;26.506;2023-03-31T09:32:30;99595.22;;;10.12;68.98
19510;BME280;9896;42.486;26.506;2023-03-31T09:34:59;99602.03;;;10.02;67.69
19510;BME280;9896;42.486;26.506;2023-03-31T09:37:29;99590.28;;;10.16;67.39
19510;BME280;9896;42.486;26.506;2023-03-31T09:39:58;99597.91;;;9.99;68.22
19510;BME280;9896;42.486;26.506;2023-03-31T09:42:24;99577.50;;;10.05;67.61
19510;BME280;9896;42.486;26.506;2023-03-31T09:44:51;99585.38;;;10.57;66.55
19510;BME280;9896;42.486;26.506;2023-03-31T09:47:27;99573.31;;;10.73;64.69
19510;BME280;9896;42.486;26.506;2023-03-31T09:49:55;99572.53;;;10.66;64.89
19510;BME280;9896;42.486;26.506;2023-03-31T09:52:29;99580.22;;;10.94;64.55
19510;BME280;9896;42.486;26.506;2023-03-31T09:54:58;99577.44;;;11.07;64.68
19510;BME280;9896;42.486;26.506;2023-03-31T09:57:33;99568.75;;;11.61;61.92
19510;BME280;9896;42.486;26.506;2023-03-31T10:00:15;99565.94;;;11.74;60.74
19510;BME280;9896;42.486;26.506;2023-03-31T10:02:48;99566.16;;;11.73;56.83
19510;BME280;9896;42.486;26.506;2023-03-31T10:05:36;99568.56;;;11.06;58.44
19510;BME280;9896;42.486;26.506;2023-03-31T10:08:26;99563.41;;;11.30;58.76
19510;BME280;9896;42.486;26.506;2023-03-31T10:11:07;99549.88;;;11.43;56.36
19510;BME280;9896;42.486;26.506;2023-03-31T10:13:45;99538.13;;;11.44;56.38
19510;BME280;9896;42.486;26.506;2023-03-31T10:19:20;99531.56;;;12.01;55.58
19510;BME280;9896;42.486;26.506;2023-03-31T10:21:48;99534.47;;;11.81;54.82
19510;BME280;9896;42.486;26.506;2023-03-31T10:24:19;99527.25;;;11.82;56.29
19510;BME280;9896;42.486;26.506;2023-03-31T10:26:49;99519.22;;;12.11;56.32
19510;BME280;9896;42.486;26.506;2023-03-31T10:29:28;99508.41;;;12.48;55.79
19510;BME280;9896;42.486;26.506;2023-03-31T10:32:07;99503.94;;;12.12;56.01
19510;BME280;9896;42.486;26.506;2023-03-31T10:34:36;99497.22;;;12.51;54.45
19510;BME280;9896;42.486;26.506;2023-03-31T10:37:06;99497.09;;;12.57;53.23
19510;BME280;9896;42.486;26.506;2023-03-31T10:39:34;99475.28;;;11.88;55.31
19510;BME280;9896;42.486;26.506;2023-03-31T10:42:00;99489.50;;;12.25;55.64
19510;BME280;9896;42.486;26.506;2023-03-31T10:44:32;99487.91;;;12.35;55.16
19510;BME280;9896;42.486;26.506;2023-03-31T10:47:17;99477.81;;;12.61;54.26
19510;BME280;9896;42.486;26.506;2023-03-31T10:49:43;99444.69;;;12.48;55.36
19510;BME280;9896;42.486;26.506;2023-03-31T10:52:21;99466.00;;;12.50;55.53
19510;BME280;9896;42.486;26.506;2023-03-31T10:54:50;99457.31;;;11.88;58.77
19510;BME280;9896;42.486;26.506;2023-03-31T10:57:18;99456.88;;;12.21;58.27
19510;BME280;9896;42.486;26.506;2023-03-31T11:11:19;99424.16;;;13.98;50.83
19510;BME280;9896;42.486;26.506;2023-03-31T11:14:21;99414.59;;;13.91;49.90
19510;BME280;9896;42.486;26.506;2023-03-31T11:17:15;99418.88;;;14.04;50.51
19510;BME280;9896;42.486;26.506;2023-03-31T11:20:06;99419.25;;;14.52;49.47
19510;BME280;9896;42.486;26.506;2023-03-31T11:22:46;99409.97;;;14.31;49.72
19510;BME280;9896;42.486;26.506;2023-03-31T11:39:44;99376.78;;;15.74;45.48
19510;BME280;9896;42.486;26.506;2023-03-31T11:42:23;99371.97;;;15.55;46.68
19510;BME280;9896;42.486;26.506;2023-03-31T11:44:55;99377.44;;;16.08;45.74
19510;BME280;9896;42.486;26.506;2023-03-31T11:47:25;99369.59;;;16.39;44.10
19510;BME280;9896;42.486;26.506;2023-03-31T11:49:58;99376.88;;;16.33;44.00
19510;BME280;9896;42.486;26.506;2023-03-31T11:52:30;99358.78;;;16.39;44.41
19510;BME280;9896;42.486;26.506;2023-03-31T11:55:02;99362.88;;;15.88;45.86
19510;BME280;9896;42.486;26.506;2023-03-31T11:57:32;99357.25;;;16.48;45.12
19510;BME280;9896;42.486;26.506;2023-03-31T12:00:23;99361.94;;;16.89;43.40
19510;BME280;9896;42.486;26.506;2023-03-31T12:05:27;99344.34;;;16.92;43.10
19510;BME280;9896;42.486;26.506;2023-03-31T12:08:06;99334.59;;;16.22;44.01
19510;BME280;9896;42.486;26.506;2023-03-31T12:10:37;99340.41;;;16.09;44.63
19510;BME280;9896;42.486;26.506;2023-03-31T12:16:04;99346.34;;;16.38;44.86
19510;BME280;9896;42.486;26.506;2023-03-31T12:21:24;99334.06;;;15.98;46.71
19510;BME280;9896;42.486;26.506;2023-03-31T12:23:51;99334.94;;;16.04;46.61
19510;BME280;9896;42.486;26.506;2023-03-31T12:29:29;99344.19;;;15.81;47.26
19510;BME280;9896;42.486;26.506;2023-03-31T12:31:58;99348.13;;;15.73;48.85
19510;BME280;9896;42.486;26.506;2023-03-31T12:34:27;99344.69;;;15.56;50.41
19510;BME280;9896;42.486;26.506;2023-03-31T12:39:48;99336.09;;;14.99;52.77
19510;BME280;9896;42.486;26.506;2023-03-31T12:45:28;99344.03;;;14.89;52.12
19510;BME280;9896;42.486;26.506;2023-03-31T12:48:12;99337.50;;;14.85;51.39
19510;BME280;9896;42.486;26.506;2023-03-31T12:50:48;99335.22;;;14.60;51.33
19510;BME280;9896;42.486;26.506;2023-03-31T12:56:06;99324.44;;;14.60;51.64
19510;BME280;9896;42.486;26.506;2023-03-31T12:58:38;99321.94;;;14.92;50.98
19510;BME280;9896;42.486;26.506;2023-03-31T13:01:21;99317.63;;;15.13;50.49
19510;BME280;9896;42.486;26.506;2023-03-31T13:03:48;99297.53;;;15.25;50.10
19510;BME280;9896;42.486;26.506;2023-03-31T13:08:59;99280.84;;;15.50;49.15
19510;BME280;9896;42.486;26.506;2023-03-31T13:14:15;99271.81;;;16.99;45.07
19510;BME280;9896;42.486;26.506;2023-03-31T13:16:44;99266.09;;;17.57;43.57
19510;BME280;9896;42.486;26.506;2023-03-31T13:19:31;99258.56;;;18.10;42.45
19510;BME280;9896;42.486;26.506;2023-03-31T13:21:59;99265.09;;;18.54;41.52
19510;BME280;9896;42.486;26.506;2023-03-31T13:24:27;99258.06;;;18.33;41.33
19510;BME280;9896;42.486;26.506;2023-03-31T13:26:54;99267.28;;;17.97;41.91
19510;BME280;9896;42.486;26.506;2023-03-31T13:29:40;99258.63;;;17.17;43.86
19510;BME280;9896;42.486;26.506;2023-03-31T13:32:21;99259.34;;;16.98;44.99
19510;BME280;9896;42.486;26.506;2023-03-31T13:37:23;99242.44;;;16.76;46.10
19510;BME280;9896;42.486;26.506;2023-03-31T13:51:34;99238.50;;;16.56;47.68
19510;BME280;9896;42.486;26.506;2023-03-31T13:57:04;99224.97;;;16.56;47.99
19510;BME280;9896;42.486;26.506;2023-03-31T14:05:44;99209.44;;;16.84;47.08
19510;BME280;9896;42.486;26.506;2023-03-31T14:11:29;99205.38;;;18.39;43.93
19510;BME280;9896;42.486;26.506;2023-03-31T14:14:03;99202.25;;;17.09;46.78
19510;BME280;9896;42.486;26.506;2023-03-31T14:16:38;99201.75;;;17.33;46.45
19510;BME280;9896;42.486;26.506;2023-03-31T14:25:12;99199.41;;;16.79;47.79
19510;BME280;9896;42.486;26.506;2023-03-31T14:33:36;99190.97;;;16.28;49.88
19510;BME280;9896;42.486;26.506;2023-03-31T14:38:50;99179.44;;;16.06;51.76
19510;BME280;9896;42.486;26.506;2023-03-31T14:41:20;99179.59;;;15.90;52.31
19510;BME280;9896;42.486;26.506;2023-03-31T14:43:55;99169.03;;;16.67;50.78
19510;BME280;9896;42.486;26.506;2023-03-31T14:46:22;99175.56;;;17.74;47.47
19510;BME280;9896;42.486;26.506;2023-03-31T14:48:50;99172.81;;;17.48;47.67
19510;BME280;9896;42.486;26.506;2023-03-31T14:51:22;99170.34;;;17.32;48.23
19510;BME280;9896;42.486;26.506;2023-03-31T14:53:55;99172.03;;;18.03;45.38
19510;BME280;9896;42.486;26.506;2023-03-31T14:56:32;99162.22;;;18.53;44.60
19510;BME280;9896;42.486;26.506;2023-03-31T14:59:02;99160.59;;;17.46;46.88
19510;BME280;9896;42.486;26.506;2023-03-31T15:01:30;99159.00;;;19.10;43.48
19510;BME280;9896;42.486;26.506;2023-03-31T15:03:59;99166.66;;;19.03;43.01
19510;BME280;9896;42.486;26.506;2023-03-31T15:06:25;99144.94;;;17.68;45.70
19510;BME280;9896;42.486;26.506;2023-03-31T15:08:54;99151.09;;;17.33;47.20
19510;BME280;9896;42.486;26.506;2023-03-31T15:11:21;99162.25;;;17.52;47.49
19510;BME280;9896;42.486;26.506;2023-03-31T15:13:51;99169.56;;;19.12;43.32
19510;BME280;9896;42.486;26.506;2023-03-31T15:21:40;99164.56;;;19.34;43.06
19510;BME280;9896;42.486;26.506;2023-03-31T15:24:06;99163.81;;;20.01;41.60
19510;BME280;9896;42.486;26.506;2023-03-31T15:26:39;99156.94;;;19.36;42.44
19510;BME280;9896;42.486;26.506;2023-03-31T15:29:25;99161.94;;;18.39;45.17
19510;BME280;9896;42.486;26.506;2023-03-31T15:31:57;99164.09;;;18.42;45.60
19510;BME280;9896;42.486;26.506;2023-03-31T15:34:31;99162.47;;;18.56;44.94
19510;BME280;9896;42.486;26.506;2023-03-31T15:36:58;99170.63;;;18.62;44.86
19510;BME280;9896;42.486;26.506;2023-03-31T15:39:27;99166.34;;;17.75;47.18
19510;BME280;9896;42.486;26.506;2023-03-31T15:41:56;99159.03;;;17.60;47.60
19510;BME280;9896;42.486;26.506;2023-03-31T15:44:35;99155.16;;;17.41;48.25
19510;BME280;9896;42.486;26.506;2023-03-31T15:47:10;99154.56;;;17.08;49.20
19510;BME280;9896;42.486;26.506;2023-03-31T15:49:36;99153.94;;;16.81;50.13
19510;BME280;9896;42.486;26.506;2023-03-31T15:52:20;99146.47;;;16.56;50.55
19510;BME280;9896;42.486;26.506;2023-03-31T15:54:46;99145.63;;;16.46;51.13
19510;BME280;9896;42.486;26.506;2023-03-31T15:57:14;99146.06;;;16.75;50.59
19510;BME280;9896;42.486;26.506;2023-03-31T15:59:50;99151.16;;;16.66;50.61
19510;BME280;9896;42.486;26.506;2023-03-31T16:02:24;99155.28;;;16.79;49.74
19510;BME280;9896;42.486;26.506;2023-03-31T16:04:54;99150.97;;;16.83;49.86
19510;BME280;9896;42.486;26.506;2023-03-31T16:07:21;99162.13;;;17.01;48.84
19510;BME280;9896;42.486;26.506;2023-03-31T16:12:29;99161.75;;;16.31;51.20
19510;BME280;9896;42.486;26.506;2023-03-31T16:15:00;99155.19;;;16.16;51.12
19510;BME280;9896;42.486;26.506;2023-03-31T16:17:35;99157.16;;;15.57;52.85
19510;BME280;9896;42.486;26.506;2023-03-31T16:20:34;99152.00;;;15.29;54.33